sensor_id;sensor_type;location;lat;lon;timestamp;pressure;altitude;pressure_sealevel;temperature;humidity
13080;BME280;6606;49.154;9.280;2023-04-09T00:01:49;100413.13;;;5.49;100.00
13080;BME280;6606;49.154;9.280;2023-04-09T00:04:31;100407.03;;;5.49;100.00
13080;BME280;6606;49.154;9.280;2023-04-09T00:07:13;100403.41;;;5.56;100.00
13080;BME280;6606;49.154;9.280;2023-04-09T00:09:54;100405.06;;;5.60;100.00
13080;BME280;6606;49.154;9.280;2023-04-09T00:12:36;100404.94;;;5.68;100.00
13080;BME280;6606;49.154;9.280;2023-04-09T00:15:19;100405.72;;;5.73;100.00
13080;BME280;6606;49.154;9.280;2023-04-09T00:18:01;100401.16;;;5.81;100.00
13080;BME280;6606;49.154;9.280;2023-04-09T00:20:43;100397.44;;;5.93;100.00
13080;BME280;6606;49.154;9.280;2023-04-09T00:23:25;100400.00;;;5.98;100.00
13080;BME280;6606;49.154;9.280;2023-04-09T00:26:07;100395.50;;;6.04;100.00
13080;BME280;6606;49.154;9.280;2023-04-09T00:28:49;100400.69;;;6.09;100.00
13080;BME280;6606;49.154;9.280;2023-04-09T00:31:32;100404.03;;;6.15;100.00
13080;BME280;6606;49.154;9.280;2023-04-09T00:34:14;100395.97;;;6.25;100.00
13080;BME280;6606;49.154;9.280;2023-04-09T00:36:56;100401.03;;;6.34;100.00
13080;BME280;6606;49.154;9.280;2023-04-09T00:39:37;100396.44;;;6.44;100.00
13080;BME280;6606;49.154;9.280;2023-04-09T00:42:19;100389.19;;;6.53;100.00
13080;BME280;6606;49.154;9.280;2023-04-09T00:45:01;100389.06;;;6.59;100.00
13080;BME280;6606;49.154;9.280;2023-04-09T00:47:44;100387.22;;;6.63;100.00
13080;BME280;6606;49.154;9.280;2023-04-09T00:50:26;100393.28;;;6.67;100.00
13080;BME280;6606;49.154;9.280;2023-04-09T00:53:08;100395.88;;;6.70;100.00
13080;BME280;6606;49.154;9.280;2023-04-09T00:55:51;100390.75;;;6.62;100.00
13080;BME280;6606;49.154;9.280;2023-04-09T00:58:33;100390.59;;;6.70;100.00
13080;BME280;6606;49.154;9.280;2023-04-09T01:01:15;100391.56;;;6.64;100.00
13080;BME280;6606;49.154;9.280;2023-04-09T01:03:58;100383.81;;;6.58;100.00
13080;BME280;6606;49.154;9.280;2023-04-09T01:06:46;100394.34;;;6.58;100.00
13080;BME280;6606;49.154;9.280;2023-04-09T01:09:33;100391.25;;;6.39;100.00
13080;BME280;6606;49.154;9.280;2023-04-09T01:12:22;100387.69;;;6.43;100.00
13080;BME280;6606;49.154;9.280;2023-04-09T01:15:08;100389.50;;;6.39;100.00
13080;BME280;6606;49.154;9.280;2023-04-09T01:17:55;100386.53;;;6.14;100.00
13080;BME280;6606;49.154;9.280;2023-04-09T01:20:47;100386.91;;;5.96;100.00
13080;BME280;6606;49.154;9.280;2023-04-09T01:23:36;100386.97;;;5.90;100.00
13080;BME280;6606;49.154;9.280;2023-04-09T01:26:37;100377.56;;;5.77;100.00
13080;BME280;6606;49.154;9.280;2023-04-09T01:29:23;100382.13;;;5.68;100.00
13080;BME280;6606;49.154;9.280;2023-04-09T01:32:06;100389.13;;;5.69;100.00
13080;BME280;6606;49.154;9.280;2023-04-09T01:34:49;100382.97;;;5.70;100.00
13080;BME280;6606;49.154;9.280;2023-04-09T01:37:32;100385.56;;;5.72;100.00
13080;BME280;6606;49.154;9.280;2023-04-09T01:40:15;100392.53;;;5.75;100.00
13080;BME280;6606;49.154;9.280;2023-04-09T01:42:58;100391.50;;;5.83;100.00
13080;BME280;6606;49.154;9.280;2023-04-09T01:45:44;100393.88;;;5.97;100.00
13080;BME280;6606;49.154;9.280;2023-04-09T01:48:28;100390.09;;;6.10;100.00
13080;BME280;6606;49.154;9.280;2023-04-09T01:51:10;100380.22;;;6.22;100.00
13080;BME280;6606;49.154;9.280;2023-04-09T01:53:53;100382.81;;;6.23;100.00
13080;BME280;6606;49.154;9.280;2023-04-09T01:56:39;100385.47;;;6.22;100.00
13080;BME280;6606;49.154;9.280;2023-04-09T01:59:21;100385.59;;;6.17;100.00
13080;BME280;6606;49.154;9.280;2023-04-09T02:02:09;100383.50;;;6.33;100.00
13080;BME280;6606;49.154;9.280;2023-04-09T02:04:53;100381.91;;;6.24;100.00
13080;BME280;6606;49.154;9.280;2023-04-09T02:07:42;100385.22;;;6.34;100.00
13080;BME280;6606;49.154;9.280;2023-04-09T02:10:26;100386.06;;;6.36;100.00
13080;BME280;6606;49.154;9.280;2023-04-09T02:13:12;100376.88;;;6.13;100.00
13080;BME280;6606;49.154;9.280;2023-04-09T02:15:57;100389.31;;;6.07;100.00
13080;BME280;6606;49.154;9.280;2023-04-09T02:18:41;100381.13;;;6.19;100.00
13080;BME280;6606;49.154;9.280;2023-04-09T02:21:23;100388.84;;;6.30;100.00
13080;BME280;6606;49.154;9.280;2023-04-09T02:24:06;100384.53;;;6.26;100.00
13080;BME280;6606;49.154;9.280;2023-04-09T02:26:48;100382.72;;;6.28;100.00
13080;BME280;6606;49.154;9.280;2023-04-09T02:29:30;100382.66;;;6.31;100.00
13080;BME280;6606;49.154;9.280;2023-04-09T02:32:12;100386.13;;;6.33;100.00
13080;BME280;6606;49.154;9.280;2023-04-09T02:34:55;100382.44;;;6.40;100.00
13080;BME280;6606;49.154;9.280;2023-04-09T02:37:36;100384.31;;;6.35;100.00
13080;BME280;6606;49.154;9.280;2023-04-09T02:40:18;100377.56;;;6.22;100.00
13080;BME280;6606;49.154;9.280;2023-04-09T02:43:00;100372.44;;;6.15;100.00
13080;BME280;6606;49.154;9.280;2023-04-09T02:45:42;100371.59;;;6.15;100.00
13080;BME280;6606;49.154;9.280;2023-04-09T02:48:23;100378.34;;;6.28;100.00
13080;BME280;6606;49.154;9.280;2023-04-09T02:51:07;100382.53;;;6.37;100.00
13080;BME280;6606;49.154;9.280;2023-04-09T02:53:49;100384.13;;;6.44;100.00
13080;BME280;6606;49.154;9.280;2023-04-09T02:56:30;100373.63;;;6.43;100.00
13080;BME280;6606;49.154;9.280;2023-04-09T02:59:12;100380.72;;;6.39;100.00
13080;BME280;6606;49.154;9.280;2023-04-09T03:01:54;100375.41;;;6.42;100.00
13080;BME280;6606;49.154;9.280;2023-04-09T03:04:35;100376.13;;;6.49;100.00
13080;BME280;6606;49.154;9.280;2023-04-09T03:07:18;100376.94;;;6.52;100.00
13080;BME280;6606;49.154;9.280;2023-04-09T03:10:00;100371.59;;;6.55;100.00
13080;BME280;6606;49.154;9.280;2023-04-09T03:12:42;100367.41;;;6.47;100.00
13080;BME280;6606;49.154;9.280;2023-04-09T03:15:24;100367.22;;;6.54;100.00
13080;BME280;6606;49.154;9.280;2023-04-09T03:18:06;100367.19;;;6.56;100.00
13080;BME280;6606;49.154;9.280;2023-04-09T03:20:48;100359.41;;;6.51;100.00
13080;BME280;6606;49.154;9.280;2023-04-09T03:23:31;100368.13;;;6.53;100.00
13080;BME280;6606;49.154;9.280;2023-04-09T03:26:15;100357.56;;;6.53;100.00
13080;BME280;6606;49.154;9.280;2023-04-09T03:29:02;100357.56;;;6.53;100.00
13080;BME280;6606;49.154;9.280;2023-04-09T03:31:44;100359.34;;;6.54;100.00
13080;BME280;6606;49.154;9.280;2023-04-09T03:34:26;100361.34;;;6.43;100.00
13080;BME280;6606;49.154;9.280;2023-04-09T03:37:10;100361.47;;;6.37;100.00
13080;BME280;6606;49.154;9.280;2023-04-09T03:39:53;100359.91;;;6.27;100.00
13080;BME280;6606;49.154;9.280;2023-04-09T03:42:36;100357.97;;;6.35;100.00
13080;BME280;6606;49.154;9.280;2023-04-09T03:45:18;100370.19;;;6.41;100.00
13080;BME280;6606;49.154;9.280;2023-04-09T03:48:03;100364.78;;;6.45;100.00
13080;BME280;6606;49.154;9.280;2023-04-09T03:50:45;100367.47;;;6.44;100.00
13080;BME280;6606;49.154;9.280;2023-04-09T03:53:30;100364.78;;;6.45;100.00
13080;BME280;6606;49.154;9.280;2023-04-09T03:56:18;100363.06;;;6.44;100.00
13080;BME280;6606;49.154;9.280;2023-04-09T03:59:00;100364.78;;;6.45;100.00
13080;BME280;6606;49.154;9.280;2023-04-09T04:01:50;100361.06;;;6.55;100.00
13080;BME280;6606;49.154;9.280;2023-04-09T04:04:32;100362.84;;;6.53;100.00
13080;BME280;6606;49.154;9.280;2023-04-09T04:07:14;100360.44;;;6.44;100.00
13080;BME280;6606;49.154;9.280;2023-04-09T04:10:03;100357.25;;;6.30;100.00
13080;BME280;6606;49.154;9.280;2023-04-09T04:12:46;100354.41;;;6.37;100.00
13080;BME280;6606;49.154;9.280;2023-04-09T04:15:38;100359.66;;;6.41;100.00
13080;BME280;6606;49.154;9.280;2023-04-09T04:18:25;100362.22;;;6.44;100.00
13080;BME280;6606;49.154;9.280;2023-04-09T04:21:11;100370.81;;;6.50;100.00
13080;BME280;6606;49.154;9.280;2023-04-09T04:23:57;100367.22;;;6.54;100.00
13080;BME280;6606;49.154;9.280;2023-04-09T04:26:41;100364.44;;;6.60;100.00
13080;BME280;6606;49.154;9.280;2023-04-09T04:29:27;100374.91;;;6.64;100.00
13080;BME280;6606;49.154;9.280;2023-04-09T04:32:16;100369.78;;;6.57;100.00
13080;BME280;6606;49.154;9.280;2023-04-09T04:34:58;100375.22;;;6.51;100.00
13080;BME280;6606;49.154;9.280;2023-04-09T04:37:40;100380.25;;;6.60;100.00
13080;BME280;6606;49.154;9.280;2023-04-09T04:40:22;100372.31;;;6.62;100.00
13080;BME280;6606;49.154;9.280;2023-04-09T04:43:10;100375.81;;;6.63;100.00
13080;BME280;6606;49.154;9.280;2023-04-09T04:45:54;100386.28;;;6.66;100.00
13080;BME280;6606;49.154;9.280;2023-04-09T04:48:38;100387.31;;;6.58;100.00
13080;BME280;6606;49.154;9.280;2023-04-09T04:51:20;100390.78;;;6.60;100.00
13080;BME280;6606;49.154;9.280;2023-04-09T04:54:13;100389.00;;;6.63;100.00
13080;BME280;6606;49.154;9.280;2023-04-09T04:57:02;100394.41;;;6.56;100.00
13080;BME280;6606;49.154;9.280;2023-04-09T04:59:47;100380.31;;;6.57;100.00
13080;BME280;6606;49.154;9.280;2023-04-09T05:02:31;100390.59;;;6.70;100.00
13080;BME280;6606;49.154;9.280;2023-04-09T05:05:38;100392.16;;;6.78;100.00
13080;BME280;6606;49.154;9.280;2023-04-09T05:08:19;100389.50;;;6.78;100.00
13080;BME280;6606;49.154;9.280;2023-04-09T05:11:04;100393.16;;;6.73;100.00
13080;BME280;6606;49.154;9.280;2023-04-09T05:18:02;100391.09;;;6.86;100.00
13080;BME280;6606;49.154;9.280;2023-04-09T05:20:44;100386.34;;;7.01;100.00
13080;BME280;6606;49.154;9.280;2023-04-09T05:23:26;100386.34;;;7.01;100.00
13080;BME280;6606;49.154;9.280;2023-04-09T05:29:31;100389.41;;;7.19;100.00
13080;BME280;6606;49.154;9.280;2023-04-09T05:32:14;100383.88;;;7.30;100.00
13080;BME280;6606;49.154;9.280;2023-04-09T05:35:00;100395.22;;;7.33;100.00
13080;BME280;6606;49.154;9.280;2023-04-09T05:37:44;100389.00;;;7.36;100.00
13080;BME280;6606;49.154;9.280;2023-04-09T05:40:26;100387.31;;;7.33;100.00
13080;BME280;6606;49.154;9.280;2023-04-09T05:43:10;100388.28;;;7.29;100.00
13080;BME280;6606;49.154;9.280;2023-04-09T05:45:56;100388.66;;;7.49;100.00
13080;BME280;6606;49.154;9.280;2023-04-09T05:48:37;100387.34;;;7.64;100.00
13080;BME280;6606;49.154;9.280;2023-04-09T05:51:21;100385.81;;;7.57;100.00
13080;BME280;6606;49.154;9.280;2023-04-09T05:54:03;100393.94;;;7.48;100.00
13080;BME280;6606;49.154;9.280;2023-04-09T05:56:49;100392.06;;;7.53;100.00
13080;BME280;6606;49.154;9.280;2023-04-09T05:59:33;100391.53;;;7.73;100.00
13080;BME280;6606;49.154;9.280;2023-04-09T06:02:14;100391.94;;;7.58;100.00
13080;BME280;6606;49.154;9.280;2023-04-09T06:04:56;100398.81;;;7.65;100.00
13080;BME280;6606;49.154;9.280;2023-04-09T06:07:40;100391.69;;;7.67;100.00
13080;BME280;6606;49.154;9.280;2023-04-09T06:10:23;100400.41;;;8.02;100.00
13080;BME280;6606;49.154;9.280;2023-04-09T06:13:04;100403.03;;;8.33;100.00
13080;BME280;6606;49.154;9.280;2023-04-09T06:15:46;100399.94;;;8.50;100.00
13080;BME280;6606;49.154;9.280;2023-04-09T06:18:29;100404.38;;;8.77;100.00
13080;BME280;6606;49.154;9.280;2023-04-09T06:21:11;100398.81;;;8.87;100.00
13080;BME280;6606;49.154;9.280;2023-04-09T06:23:56;100397.91;;;8.88;100.00
13080;BME280;6606;49.154;9.280;2023-04-09T06:26:38;100400.19;;;9.27;100.00
13080;BME280;6606;49.154;9.280;2023-04-09T06:29:20;100405.97;;;9.38;100.00
13080;BME280;6606;49.154;9.280;2023-04-09T06:32:02;100395.94;;;9.73;100.00
13080;BME280;6606;49.154;9.280;2023-04-09T06:34:44;100390.66;;;9.98;100.00
13080;BME280;6606;49.154;9.280;2023-04-09T06:37:25;100397.22;;;10.11;100.00
13080;BME280;6606;49.154;9.280;2023-04-09T06:40:09;100389.16;;;10.14;100.00
13080;BME280;6606;49.154;9.280;2023-04-09T06:42:51;100404.25;;;10.12;100.00
13080;BME280;6606;49.154;9.280;2023-04-09T06:45:42;100405.22;;;10.09;100.00
13080;BME280;6606;49.154;9.280;2023-04-09T06:48:24;100399.19;;;10.06;100.00
13080;BME280;6606;49.154;9.280;2023-04-09T06:51:05;100404.25;;;10.12;100.00
13080;BME280;6606;49.154;9.280;2023-04-09T06:53:47;100405.91;;;10.15;100.00
13080;BME280;6606;49.154;9.280;2023-04-09T06:56:31;100402.19;;;10.45;100.00
13080;BME280;6606;49.154;9.280;2023-04-09T06:59:12;100402.19;;;10.45;100.00
13080;BME280;6606;49.154;9.280;2023-04-09T07:01:55;100413.63;;;10.21;100.00
13080;BME280;6606;49.154;9.280;2023-04-09T07:04:37;100411.81;;;9.73;100.00
13080;BME280;6606;49.154;9.280;2023-04-09T07:07:19;100421.44;;;9.75;100.00
13080;BME280;6606;49.154;9.280;2023-04-09T07:10:01;100420.53;;;9.76;100.00
13080;BME280;6606;49.154;9.280;2023-04-09T07:12:45;100419.94;;;9.93;100.00
13080;BME280;6606;49.154;9.280;2023-04-09T07:15:26;100425.56;;;10.09;100.00
13080;BME280;6606;49.154;9.280;2023-04-09T07:18:08;100426.06;;;10.19;100.00
13080;BME280;6606;49.154;9.280;2023-04-09T07:20:51;100422.84;;;12.10;100.00
13080;BME280;6606;49.154;9.280;2023-04-09T07:23:33;100421.31;;;14.40;100.00
13080;BME280;6606;49.154;9.280;2023-04-09T07:26:15;100416.47;;;15.88;100.00
13080;BME280;6606;49.154;9.280;2023-04-09T07:28:58;100419.94;;;16.61;83.31
13080;BME280;6606;49.154;9.280;2023-04-09T07:31:40;100411.75;;;17.73;77.89
13080;BME280;6606;49.154;9.280;2023-04-09T07:34:22;100413.91;;;18.83;71.73
13080;BME280;6606;49.154;9.280;2023-04-09T07:37:03;100411.56;;;18.78;64.02
13080;BME280;6606;49.154;9.280;2023-04-09T07:39:46;100414.19;;;19.87;54.50
13080;BME280;6606;49.154;9.280;2023-04-09T07:42:28;100410.63;;;19.87;53.07
13080;BME280;6606;49.154;9.280;2023-04-09T07:45:11;100406.81;;;19.67;52.73
13080;BME280;6606;49.154;9.280;2023-04-09T07:47:52;100416.63;;;19.07;58.58
13080;BME280;6606;49.154;9.280;2023-04-09T07:50:34;100411.41;;;20.00;50.62
13080;BME280;6606;49.154;9.280;2023-04-09T07:53:16;100409.63;;;19.76;51.32
13080;BME280;6606;49.154;9.280;2023-04-09T07:55:57;100415.84;;;17.66;66.47
13080;BME280;6606;49.154;9.280;2023-04-09T07:58:39;100406.66;;;18.46;65.60
13080;BME280;6606;49.154;9.280;2023-04-09T08:01:25;100414.69;;;19.09;57.17
13080;BME280;6606;49.154;9.280;2023-04-09T08:04:10;100393.16;;;19.92;52.38
13080;BME280;6606;49.154;9.280;2023-04-09T08:06:55;100415.59;;;18.09;59.66
13080;BME280;6606;49.154;9.280;2023-04-09T08:09:37;100397.88;;;18.44;61.36
13080;BME280;6606;49.154;9.280;2023-04-09T08:12:19;100401.44;;;19.19;51.50
13080;BME280;6606;49.154;9.280;2023-04-09T08:15:01;100409.22;;;19.35;52.35
13080;BME280;6606;49.154;9.280;2023-04-09T08:17:47;100407.63;;;17.82;57.64
13080;BME280;6606;49.154;9.280;2023-04-09T08:20:29;100416.13;;;16.94;63.29
13080;BME280;6606;49.154;9.280;2023-04-09T08:23:12;100414.66;;;15.58;76.82
13080;BME280;6606;49.154;9.280;2023-04-09T08:25:54;100417.69;;;14.41;94.22
13080;BME280;6606;49.154;9.280;2023-04-09T08:28:36;100424.13;;;14.03;98.72
13080;BME280;6606;49.154;9.280;2023-04-09T08:31:18;100422.59;;;13.47;100.00
13080;BME280;6606;49.154;9.280;2023-04-09T08:34:01;100419.22;;;13.61;100.00
13080;BME280;6606;49.154;9.280;2023-04-09T08:36:44;100421.31;;;13.54;96.50
13080;BME280;6606;49.154;9.280;2023-04-09T08:39:26;100427.09;;;13.28;100.00
13080;BME280;6606;49.154;9.280;2023-04-09T08:42:08;100431.34;;;13.49;99.57
13080;BME280;6606;49.154;9.280;2023-04-09T08:44:52;100422.91;;;13.58;91.66
13080;BME280;6606;49.154;9.280;2023-04-09T08:47:35;100424.31;;;14.00;86.96
13080;BME280;6606;49.154;9.280;2023-04-09T08:50:19;100419.91;;;13.64;89.33
13080;BME280;6606;49.154;9.280;2023-04-09T08:53:02;100415.84;;;13.92;87.79
13080;BME280;6606;49.154;9.280;2023-04-09T08:55:44;100414.50;;;13.83;82.65
13080;BME280;6606;49.154;9.280;2023-04-09T08:58:26;100422.16;;;14.07;90.31
13080;BME280;6606;49.154;9.280;2023-04-09T09:01:17;100409.63;;;14.42;76.35
13080;BME280;6606;49.154;9.280;2023-04-09T09:04:00;100424.56;;;13.25;94.39
13080;BME280;6606;49.154;9.280;2023-04-09T09:15:43;100420.34;;;13.20;89.94
13080;BME280;6606;49.154;9.280;2023-04-09T09:18:37;100421.19;;;13.75;86.62
13080;BME280;6606;49.154;9.280;2023-04-09T09:21:19;100421.63;;;14.34;70.04
13080;BME280;6606;49.154;9.280;2023-04-09T09:24:15;100420.84;;;13.46;83.43
13080;BME280;6606;49.154;9.280;2023-04-09T09:26:57;100424.47;;;13.97;76.45
13080;BME280;6606;49.154;9.280;2023-04-09T09:29:40;100412.41;;;13.73;68.71
13080;BME280;6606;49.154;9.280;2023-04-09T09:32:25;100420.16;;;14.28;66.27
13080;BME280;6606;49.154;9.280;2023-04-09T09:35:08;100415.19;;;14.04;63.42
13080;BME280;6606;49.154;9.280;2023-04-09T09:38:00;100418.81;;;13.86;62.65
13080;BME280;6606;49.154;9.280;2023-04-09T09:40:43;100420.22;;;13.93;69.07
13080;BME280;6606;49.154;9.280;2023-04-09T09:43:39;100424.06;;;14.56;66.22
13080;BME280;6606;49.154;9.280;2023-04-09T09:46:21;100417.16;;;14.99;63.17
13080;BME280;6606;49.154;9.280;2023-04-09T09:49:07;100415.28;;;15.01;60.65
13080;BME280;6606;49.154;9.280;2023-04-09T09:51:50;100417.78;;;14.39;59.03
13080;BME280;6606;49.154;9.280;2023-04-09T09:54:39;100417.94;;;14.36;62.14
13080;BME280;6606;49.154;9.280;2023-04-09T09:57:23;100406.13;;;15.21;57.10
13080;BME280;6606;49.154;9.280;2023-04-09T10:00:07;100403.63;;;15.64;53.02
13080;BME280;6606;49.154;9.280;2023-04-09T10:02:56;100397.28;;;15.95;51.55
13080;BME280;6606;49.154;9.280;2023-04-09T10:05:41;100402.63;;;15.51;45.43
13080;BME280;6606;49.154;9.280;2023-04-09T10:08:24;100398.09;;;15.67;46.10
13080;BME280;6606;49.154;9.280;2023-04-09T10:11:07;100396.63;;;16.06;46.22
13080;BME280;6606;49.154;9.280;2023-04-09T10:13:50;100404.22;;;16.28;43.73
13080;BME280;6606;49.154;9.280;2023-04-09T10:16:33;100393.88;;;15.63;40.83
13080;BME280;6606;49.154;9.280;2023-04-09T10:19:15;100405.00;;;15.25;43.51
13080;BME280;6606;49.154;9.280;2023-04-09T10:22:04;100400.69;;;15.53;41.44
13080;BME280;6606;49.154;9.280;2023-04-09T10:24:48;100406.50;;;14.99;44.17
13080;BME280;6606;49.154;9.280;2023-04-09T10:27:30;100413.72;;;14.97;46.27
13080;BME280;6606;49.154;9.280;2023-04-09T10:30:30;100398.03;;;15.53;45.35
13080;BME280;6606;49.154;9.280;2023-04-09T10:33:13;100398.38;;;15.32;44.84
13080;BME280;6606;49.154;9.280;2023-04-09T10:35:59;100396.81;;;15.89;42.48
13080;BME280;6606;49.154;9.280;2023-04-09T10:38:44;100393.22;;;16.47;40.72
13080;BME280;6606;49.154;9.280;2023-04-09T10:41:28;100389.84;;;16.58;42.04
13080;BME280;6606;49.154;9.280;2023-04-09T10:44:21;100398.78;;;15.71;44.32
13080;BME280;6606;49.154;9.280;2023-04-09T10:47:03;100385.75;;;16.38;42.29
13080;BME280;6606;49.154;9.280;2023-04-09T10:49:48;100398.47;;;16.48;45.65
13080;BME280;6606;49.154;9.280;2023-04-09T10:52:32;100399.06;;;16.25;44.06
13080;BME280;6606;49.154;9.280;2023-04-09T10:55:34;100384.91;;;15.34;46.52
13080;BME280;6606;49.154;9.280;2023-04-09T10:58:17;100389.56;;;15.30;45.30
13080;BME280;6606;49.154;9.280;2023-04-09T11:01:00;100389.78;;;16.02;44.89
13080;BME280;6606;49.154;9.280;2023-04-09T11:04:11;100369.00;;;16.63;42.35
13080;BME280;6606;49.154;9.280;2023-04-09T11:06:57;100372.44;;;16.51;43.00
13080;BME280;6606;49.154;9.280;2023-04-09T11:10:07;100375.03;;;16.38;41.31
13080;BME280;6606;49.154;9.280;2023-04-09T11:13:42;100357.44;;;17.44;40.37
13080;BME280;6606;49.154;9.280;2023-04-09T11:16:23;100366.97;;;17.35;39.45
13080;BME280;6606;49.154;9.280;2023-04-09T11:19:05;100365.25;;;17.34;39.77
13080;BME280;6606;49.154;9.280;2023-04-09T11:21:55;100357.13;;;17.08;39.01
13080;BME280;6606;49.154;9.280;2023-04-09T11:24:40;100353.84;;;16.49;39.44
13080;BME280;6606;49.154;9.280;2023-04-09T11:27:22;100356.50;;;16.49;40.09
13080;BME280;6606;49.154;9.280;2023-04-09T11:30:06;100351.09;;;16.92;40.49
13080;BME280;6606;49.154;9.280;2023-04-09T11:32:48;100352.47;;;17.25;37.45
13080;BME280;6606;49.154;9.280;2023-04-09T11:35:33;100350.34;;;17.30;36.92
13080;BME280;6606;49.154;9.280;2023-04-09T11:38:14;100350.72;;;17.11;39.39
13080;BME280;6606;49.154;9.280;2023-04-09T11:41:00;100346.56;;;16.92;35.57
13080;BME280;6606;49.154;9.280;2023-04-09T11:43:42;100358.34;;;16.90;37.08
13080;BME280;6606;49.154;9.280;2023-04-09T11:46:25;100352.97;;;17.04;36.94
13080;BME280;6606;49.154;9.280;2023-04-09T11:49:07;100357.13;;;17.08;35.72
13080;BME280;6606;49.154;9.280;2023-04-09T11:51:49;100346.72;;;17.31;34.81
13080;BME280;6606;49.154;9.280;2023-04-09T11:54:32;100347.88;;;17.79;35.61
13080;BME280;6606;49.154;9.280;2023-04-09T11:57:13;100341.38;;;17.56;35.36
13080;BME280;6606;49.154;9.280;2023-04-09T11:59:55;100348.09;;;16.55;37.10
13080;BME280;6606;49.154;9.280;2023-04-09T12:02:40;100343.91;;;16.08;37.28
13080;BME280;6606;49.154;9.280;2023-04-09T12:05:24;100346.88;;;16.03;38.13
13080;BME280;6606;49.154;9.280;2023-04-09T12:08:06;100345.38;;;15.99;40.29
13080;BME280;6606;49.154;9.280;2023-04-09T12:10:49;100338.88;;;16.18;39.64
13080;BME280;6606;49.154;9.280;2023-04-09T12:13:31;100344.06;;;16.48;40.77
13080;BME280;6606;49.154;9.280;2023-04-09T12:16:13;100346.41;;;16.25;41.88
13080;BME280;6606;49.154;9.280;2023-04-09T12:19:01;100338.94;;;15.73;46.14
13080;BME280;6606;49.154;9.280;2023-04-09T12:21:47;100335.59;;;15.84;42.78
13080;BME280;6606;49.154;9.280;2023-04-09T12:24:29;100342.31;;;15.91;40.28
13080;BME280;6606;49.154;9.280;2023-04-09T12:27:11;100331.72;;;16.04;40.26
13080;BME280;6606;49.154;9.280;2023-04-09T12:29:52;100342.56;;;16.30;41.14
13080;BME280;6606;49.154;9.280;2023-04-09T12:32:34;100333.72;;;16.15;38.91
13080;BME280;6606;49.154;9.280;2023-04-09T12:35:17;100331.97;;;16.28;39.15
13080;BME280;6606;49.154;9.280;2023-04-09T12:37:59;100334.94;;;16.79;38.22
13080;BME280;6606;49.154;9.280;2023-04-09T12:40:41;100331.41;;;17.06;35.39
13080;BME280;6606;49.154;9.280;2023-04-09T12:43:22;100330.25;;;16.83;36.67
13080;BME280;6606;49.154;9.280;2023-04-09T12:46:04;100334.00;;;17.07;35.99
13080;BME280;6606;49.154;9.280;2023-04-09T12:48:46;100325.19;;;17.05;35.29
13080;BME280;6606;49.154;9.280;2023-04-09T12:51:29;100324.84;;;16.97;35.00
13080;BME280;6606;49.154;9.280;2023-04-09T12:54:12;100319.59;;;17.48;35.53
13080;BME280;6606;49.154;9.280;2023-04-09T12:56:53;100321.59;;;17.19;35.93
13080;BME280;6606;49.154;9.280;2023-04-09T12:59:37;100311.00;;;16.90;36.91
13080;BME280;6606;49.154;9.280;2023-04-09T13:02:19;100315.38;;;17.19;35.28
13080;BME280;6606;49.154;9.280;2023-04-09T13:05:01;100310.97;;;17.05;35.55
13080;BME280;6606;49.154;9.280;2023-04-09T13:07:45;100302.53;;;16.84;34.44
13080;BME280;6606;49.154;9.280;2023-04-09T13:10:27;100299.69;;;17.00;35.23
13080;BME280;6606;49.154;9.280;2023-04-09T13:13:09;100299.53;;;17.16;35.36
13080;BME280;6606;49.154;9.280;2023-04-09T13:15:53;100301.03;;;17.32;35.08
13080;BME280;6606;49.154;9.280;2023-04-09T13:18:35;100291.22;;;17.58;35.04
13080;BME280;6606;49.154;9.280;2023-04-09T13:21:16;100298.88;;;16.85;35.93
13080;BME280;6606;49.154;9.280;2023-04-09T13:23:59;100290.94;;;17.10;36.49
13080;BME280;6606;49.154;9.280;2023-04-09T13:26:41;100298.91;;;16.70;37.12
13080;BME280;6606;49.154;9.280;2023-04-09T13:29:23;100292.94;;;16.94;35.63
13080;BME280;6606;49.154;9.280;2023-04-09T13:32:08;100282.84;;;17.50;34.24
13080;BME280;6606;49.154;9.280;2023-04-09T13:34:50;100280.34;;;17.73;33.79
13080;BME280;6606;49.154;9.280;2023-04-09T13:37:33;100281.06;;;17.11;35.04
13080;BME280;6606;49.154;9.280;2023-04-09T13:40:17;100290.00;;;17.37;36.17
13080;BME280;6606;49.154;9.280;2023-04-09T13:42:59;100275.66;;;17.64;35.04
13080;BME280;6606;49.154;9.280;2023-04-09T13:45:41;100272.13;;;17.76;35.37
13080;BME280;6606;49.154;9.280;2023-04-09T13:48:23;100269.78;;;17.97;33.24
13080;BME280;6606;49.154;9.280;2023-04-09T13:51:06;100265.75;;;18.52;33.20
13080;BME280;6606;49.154;9.280;2023-04-09T13:53:48;100257.91;;;18.73;32.91
13080;BME280;6606;49.154;9.280;2023-04-09T13:56:31;100256.75;;;18.77;32.21
13080;BME280;6606;49.154;9.280;2023-04-09T13:59:13;100258.88;;;19.31;31.87
13080;BME280;6606;49.154;9.280;2023-04-09T14:01:54;100251.88;;;19.53;30.72
13080;BME280;6606;49.154;9.280;2023-04-09T14:04:36;100246.59;;;19.63;30.92
13080;BME280;6606;49.154;9.280;2023-04-09T14:07:18;100249.06;;;19.99;30.63
13080;BME280;6606;49.154;9.280;2023-04-09T14:10:00;100246.38;;;18.36;32.71
13080;BME280;6606;49.154;9.280;2023-04-09T14:12:43;100242.47;;;18.16;32.34
13080;BME280;6606;49.154;9.280;2023-04-09T14:15:26;100245.63;;;17.97;33.13
13080;BME280;6606;49.154;9.280;2023-04-09T14:18:08;100245.47;;;18.24;33.30
13080;BME280;6606;49.154;9.280;2023-04-09T14:20:51;100237.59;;;17.46;35.26
13080;BME280;6606;49.154;9.280;2023-04-09T14:23:32;100243.13;;;17.17;35.75
13080;BME280;6606;49.154;9.280;2023-04-09T14:26:14;100243.50;;;17.25;35.89
13080;BME280;6606;49.154;9.280;2023-04-09T14:28:57;100240.84;;;16.98;35.32
13080;BME280;6606;49.154;9.280;2023-04-09T14:31:40;100237.97;;;17.01;35.61
13080;BME280;6606;49.154;9.280;2023-04-09T14:34:22;100240.25;;;17.07;35.07
13080;BME280;6606;49.154;9.280;2023-04-09T14:37:04;100236.25;;;17.00;36.20
13080;BME280;6606;49.154;9.280;2023-04-09T14:39:45;100230.09;;;17.38;36.02
13080;BME280;6606;49.154;9.280;2023-04-09T14:42:27;100238.66;;;17.30;36.33
13080;BME280;6606;49.154;9.280;2023-04-09T14:45:10;100239.38;;;16.94;36.40